Accueil
METAR-TAF:

METAR-TAF

Aéroports :

Aéroport de Magenta

Nouméa, Nouvelle-Calédonie

latitude: 22-15-30S, longitude: 166-28-22E, altitude: 3 m

METAR: absent

Heure: 02:23 (15:23 UTC)

Prévision

Le bulletin a été fait il y a 4 heures et 23 minutes, à 11:00 UTC
Prévision valable du 23 à 12 UTC au 24 à 12 UTC
Vent 10 kt de est/sud-est
Visibilité 10 km ou plus
Nuages épars à une hauteur de 3000 ft
Nuages épars à une hauteur de 4500 ft
Temporairement
du 23 à 12 UTC au 24 à 12 UTC
Visibilité: 4500 m
Quelques nuages à une hauteur de 2000 ft, Cumulus congestus.
averses de pluie
Probabilité 30% :
Temporairement
du 24 à 00 UTC au 24 à 06 UTC
Visibilité: 3000 m
Nuages fragmentés à une hauteur de 1400 ft
Nuages épars à une hauteur de 1800 ft, Cumulus congestus.
averses de pluie

TAF: NWWM 231100Z 2312/2412 12010KT 9999 SCT030 SCT045 TEMPO 2312/2412 4500 SHRA FEW020TCU PROB30 TEMPO 2400/2406 3000 SHRA BKN014 SCT018TCU

Observations et prévisions météorologiques de plus de 4000 aéroports (messages METAR et TAF).

Les stations disponibles sont représentées par des disques jaunes et rouges sur la carte.

Passer la souris dessus pour voir le nom de la station.

Cliquer dessus pour voir les observations et prévisions météorologiques.

Pour changer de carte: cliquez sur les boutons verts avec une croix noire pour zoomer, sur le bouton vert avec un tiret pour effectuer un zoom arrière, ou sur les flèches vertes pour les cartes adjacentes.


METAR-TAF: